createdAt,value
2022-11-03T05:43:00.088Z,69.05
2022-11-03T05:48:37.350Z,68.69
2022-11-03T05:54:02.368Z,69.55
2022-11-03T05:59:25.747Z,70.14
2022-11-03T06:04:46.631Z,69.67
2022-11-03T06:10:31.478Z,69.75
2022-11-03T06:16:02.517Z,69.83
2022-11-03T06:21:25.567Z,69.15
2022-11-03T06:26:47.882Z,69.84
2022-11-03T06:32:13.352Z,69.16
2022-11-03T06:37:34.843Z,69.24
2022-11-03T06:42:58.498Z,69.74
2022-11-03T06:48:24.585Z,69.64
2022-11-03T06:53:46.000Z,70.01
2022-11-03T06:59:10.742Z,69.75
2022-11-03T07:04:31.892Z,69.82
2022-11-03T07:09:54.647Z,69.57
2022-11-03T07:15:30.268Z,68.62
2022-11-03T07:20:53.626Z,68.77
2022-11-03T07:26:14.509Z,68.87
2022-11-03T07:31:35.404Z,68.78
2022-11-03T07:36:57.724Z,67.80
2022-11-03T07:42:21.921Z,68.06
2022-11-03T07:47:45.406Z,68.30
2022-11-03T07:53:36.223Z,67.80
2022-11-03T07:59:05.525Z,67.26
2022-11-03T08:04:34.284Z,66.44
2022-11-03T08:09:55.644Z,66.30
2022-11-03T08:15:16.792Z,65.74
2022-11-03T08:20:37.547Z,64.93
2022-11-03T08:25:58.532Z,65.61
2022-11-03T08:31:19.325Z,64.35
2022-11-03T08:36:40.280Z,64.86
2022-11-03T08:42:01.158Z,61.08
2022-11-03T08:47:22.098Z,58.44
2022-11-03T08:52:42.870Z,55.30
2022-11-03T08:58:04.024Z,58.03
2022-11-03T09:03:25.393Z,57.67
2022-11-03T09:14:27.104Z,55.44
2022-11-03T09:19:47.912Z,55.64
2022-11-03T09:25:09.095Z,57.66
2022-11-03T09:30:30.151Z,58.00
2022-11-03T09:35:50.850Z,56.74
2022-11-03T09:41:26.255Z,57.76
2022-11-03T09:46:53.776Z,57.56
2022-11-03T09:52:21.550Z,58.06
2022-11-03T09:57:42.718Z,58.02
2022-11-03T10:03:03.928Z,56.63
2022-11-03T10:08:31.807Z,57.13
2022-11-03T10:13:56.310Z,57.39
2022-11-03T10:19:18.214Z,57.59
2022-11-03T10:24:39.558Z,57.28
2022-11-03T10:30:10.477Z,56.32
2022-11-03T10:35:35.271Z,56.60
2022-11-03T10:41:25.946Z,56.93
2022-11-03T10:47:05.796Z,56.55
2022-11-03T10:52:30.028Z,56.45
2022-11-03T10:57:53.200Z,56.22
2022-11-03T11:03:16.599Z,56.25
2022-11-03T11:08:40.660Z,55.78
2022-11-03T11:14:22.544Z,54.96
2022-11-03T11:20:22.450Z,55.06
2022-11-03T11:26:24.593Z,55.37
2022-11-03T11:31:45.961Z,55.92
2022-11-03T11:37:07.650Z,55.90
2022-11-03T11:42:30.435Z,55.76
2022-11-03T11:47:53.937Z,56.21
2022-11-03T11:53:23.184Z,55.79
2022-11-03T11:58:49.999Z,56.19
2022-11-03T12:04:28.088Z,55.83
2022-11-03T12:09:49.465Z,56.64
2022-11-03T12:15:47.993Z,56.46
2022-11-03T12:21:33.251Z,56.36
2022-11-03T12:26:54.111Z,56.87
2022-11-03T12:32:32.300Z,56.98
2022-11-03T12:37:55.110Z,57.75
2022-11-03T12:43:15.762Z,57.29
2022-11-03T12:48:36.890Z,57.48
2022-11-03T12:53:57.445Z,58.01
2022-11-03T12:59:18.078Z,57.28
2022-11-03T13:04:39.153Z,58.08
2022-11-03T13:10:00.220Z,58.19
2022-11-03T13:15:21.092Z,58.58
2022-11-03T13:20:44.929Z,58.02
2022-11-03T13:26:05.918Z,58.57
2022-11-03T13:31:27.131Z,58.71
2022-11-03T13:36:48.003Z,58.53
2022-11-03T13:42:09.027Z,58.63
2022-11-03T13:47:42.044Z,58.74
2022-11-03T14:10:03.855Z,59.20
2022-11-03T14:15:24.944Z,59.20
2022-11-03T14:20:46.002Z,59.35
2022-11-03T14:26:22.496Z,59.38
2022-11-03T14:31:47.645Z,59.41
2022-11-03T14:37:09.105Z,59.63
2022-11-03T14:42:29.951Z,59.87
2022-11-03T14:47:50.763Z,59.92
2022-11-03T14:53:11.484Z,60.04
2022-11-03T14:58:32.193Z,60.50
2022-11-03T15:03:53.122Z,60.20
2022-11-03T15:09:14.862Z,60.48
2022-11-03T15:14:35.808Z,60.83
2022-11-03T15:19:56.637Z,60.96
2022-11-03T15:25:21.541Z,61.18
2022-11-03T15:30:48.582Z,60.87
2022-11-03T15:36:09.902Z,61.67
2022-11-03T15:41:30.867Z,61.53
2022-11-03T15:46:51.850Z,61.78
2022-11-03T15:52:13.130Z,61.63
2022-11-03T15:57:33.859Z,61.55
2022-11-03T16:02:54.849Z,62.01
2022-11-03T16:08:15.707Z,62.02
2022-11-03T16:13:36.398Z,61.98
2022-11-03T16:18:57.528Z,62.86
2022-11-03T16:24:18.534Z,62.48
2022-11-03T16:29:39.303Z,62.51
2022-11-03T16:35:00.051Z,62.81
2022-11-03T16:40:20.961Z,62.64
2022-11-03T16:45:41.667Z,63.40
2022-11-03T16:51:02.529Z,63.39
2022-11-03T16:56:24.018Z,63.10
2022-11-03T17:01:45.216Z,62.85
2022-11-03T17:07:05.911Z,62.72
2022-11-03T17:12:27.216Z,62.87
2022-11-03T17:17:48.016Z,62.80
2022-11-03T17:23:08.731Z,63.22
2022-11-03T17:28:29.780Z,62.57
2022-11-03T17:33:50.793Z,63.19
2022-11-03T17:39:15.685Z,63.20
2022-11-03T17:44:37.016Z,63.81
2022-11-03T17:49:58.040Z,63.37
2022-11-03T17:55:33.159Z,63.43
2022-11-03T18:00:54.134Z,63.24
2022-11-03T18:06:19.803Z,63.60
2022-11-03T18:12:00.955Z,63.42
2022-11-03T18:17:21.814Z,63.77
2022-11-03T18:22:42.704Z,63.79
2022-11-03T18:28:03.713Z,63.51
2022-11-03T18:33:34.345Z,63.72
2022-11-03T18:38:57.015Z,63.49
2022-11-03T18:44:18.196Z,63.87
2022-11-03T18:49:38.854Z,63.95
2022-11-03T18:54:59.658Z,63.91
2022-11-03T19:00:22.986Z,64.14
2022-11-03T19:05:45.512Z,63.92
2022-11-03T19:11:06.718Z,63.51
2022-11-03T19:16:27.631Z,64.08
2022-11-03T19:21:48.555Z,64.07
2022-11-03T19:27:20.476Z,63.85
2022-11-03T19:32:45.913Z,63.96
2022-11-03T19:38:14.419Z,64.14
2022-11-03T19:43:35.549Z,64.37
2022-11-03T19:48:57.069Z,64.43
2022-11-03T19:54:21.310Z,64.41
2022-11-03T19:59:43.948Z,64.15
2022-11-03T20:05:05.001Z,63.91
2022-11-03T20:10:25.492Z,64.68
2022-11-03T20:15:46.846Z,64.07
2022-11-03T20:21:14.365Z,64.35
2022-11-03T20:26:35.960Z,64.34
2022-11-03T20:31:56.792Z,64.13
2022-11-03T20:37:19.597Z,64.49
2022-11-03T20:42:40.741Z,64.25
2022-11-03T20:48:02.245Z,64.52
2022-11-03T20:53:25.636Z,65.01
2022-11-03T20:58:49.102Z,64.61
2022-11-03T21:04:15.537Z,64.56
2022-11-03T21:09:36.531Z,65.21
2022-11-03T21:15:15.777Z,65.18
2022-11-03T21:20:36.686Z,64.75
2022-11-03T21:25:57.794Z,65.02
2022-11-03T21:31:18.795Z,64.34
2022-11-03T21:36:39.663Z,65.08
2022-11-03T21:42:18.978Z,65.35
2022-11-03T21:47:59.720Z,65.71
2022-11-03T21:53:20.971Z,64.99
2022-11-03T21:58:42.579Z,64.66
2022-11-03T22:04:03.921Z,65.19
2022-11-03T22:09:26.867Z,65.91
2022-11-03T22:15:06.197Z,65.63
2022-11-03T22:20:45.568Z,65.70
